This is the latest recevied weather packets stored in our database for station/object W4IFI. If no packets are shown the sender has not sent any weather packets the latest 10 day(s).
| Time | Temp. | Humidity | Pressure | Rain* | Wind** | Luminosity | Snow |
|---|---|---|---|---|---|---|---|
| 1777015803 | 2.22° C | 34% | 1013.7 hPa | 0 mm | - | - | - |
| 1777014303 | 2.78° C | 32% | 1013.7 hPa | 0 mm | - | - | - |
| 1777012503 | 2.78° C | 32% | 1013.8 hPa | 0 mm | - | - | - |
| 1777008003 | 0.56° C | 40% | 1013.6 hPa | 0 mm | - | - | - |
| 1777005003 | 3.89° C | 32% | 1013.9 hPa | 0 mm | - | - | - |
| 1777004703 | 4.44° C | 32% | 1013.8 hPa | 0 mm | - | - | - |
| 1777003803 | 3.89° C | 34% | 1013.8 hPa | 0 mm | - | - | - |
| 1777002603 | 4.44° C | 32% | 1013.7 hPa | 0 mm | - | - | - |
| 1777002303 | 5° C | 32% | 1013.6 hPa | 0 mm | - | - | - |
| 1777002003 | 5° C | 32% | 1013.6 hPa | 0 mm | - | - | - |
| 1777000803 | 4.44° C | 33% | 1013.3 hPa | 0 mm | - | - | - |
| 1776997503 | 7.22° C | 28% | 1012.8 hPa | 0 mm | - | - | - |
| 1776996903 | 7.78° C | 28% | 1012.5 hPa | 0 mm | - | - | - |
| 1776996303 | 8.33° C | 27% | 1012.5 hPa | 0 mm | - | - | - |
| 1776995703 | 8.33° C | 27% | 1012.5 hPa | 0 mm | - | - | - |
| 1776995103 | 8.89° C | 26% | 1012.4 hPa | 0 mm | - | - | - |
| 1776994203 | 10° C | 25% | 1012.3 hPa | 0 mm | - | - | - |
| 1776992103 | 10.56° C | 23% | 1012.2 hPa | 0 mm | - | - | - |
| 1776991803 | 10.56° C | 24% | 1012.2 hPa | 0 mm | - | - | - |
| 1776991337 | 10.56° C | 23% | 1012.2 hPa | 0 mm | - | - | - |
| 1776989403 | 11.11° C | 23% | 1012.2 hPa | 0 mm | - | - | - |
| 1776987003 | 11.11° C | 23% | 1012.1 hPa | 0 mm | - | - | - |
| 1776984303 | 11.11° C | 24% | 1011.9 hPa | 0 mm | - | - | - |
| 1776983403 | 11.11° C | 23% | 1012 hPa | 0 mm | - | - | - |
| 1776981303 | 11.67° C | 23% | 1011.8 hPa | 0 mm | - | - | - |
* Rain latest hour (hover to see other rain measurements)
** Current wind speed in m/s (hover to see current wind gust speed)